createdAt,value
2022-10-02T00:00:37.715Z,12.41
2022-10-02T00:01:58.374Z,12.38
2022-10-02T00:03:10.936Z,12.46
2022-10-02T00:04:36.519Z,12.41
2022-10-02T00:05:46.467Z,12.53
2022-10-02T00:06:51.278Z,12.45
2022-10-02T00:08:12.533Z,12.29
2022-10-02T00:09:49.365Z,12.20
2022-10-02T00:10:57.551Z,12.12
2022-10-02T00:12:01.329Z,12.01
2022-10-02T00:13:13.152Z,12.10
2022-10-02T00:14:23.506Z,12.00
2022-10-02T00:15:29.838Z,11.84
2022-10-02T00:16:42.546Z,11.90
2022-10-02T00:17:48.093Z,11.88
2022-10-02T00:18:53.648Z,11.80
2022-10-02T00:19:56.824Z,11.81
2022-10-02T00:21:02.154Z,11.77
2022-10-02T00:22:37.544Z,11.73
2022-10-02T00:23:56.699Z,11.69
2022-10-02T00:25:21.120Z,11.73
2022-10-02T00:26:41.115Z,11.61
2022-10-02T00:27:56.003Z,11.67
2022-10-02T00:29:05.188Z,11.61
2022-10-02T00:30:11.856Z,11.71
2022-10-02T00:31:24.560Z,11.94
2022-10-02T00:32:45.389Z,11.96
2022-10-02T00:34:22.086Z,12.10
2022-10-02T00:35:48.574Z,12.23
2022-10-02T00:37:10.762Z,12.12
2022-10-02T00:38:22.229Z,12.02
2022-10-02T00:39:32.873Z,11.99
2022-10-02T00:41:08.663Z,12.00
2022-10-02T00:42:45.171Z,11.88
2022-10-02T00:44:06.213Z,11.88
2022-10-02T00:45:30.699Z,11.75
2022-10-02T00:46:38.907Z,11.73
2022-10-02T00:47:59.531Z,11.64
2022-10-02T00:49:19.561Z,11.65
2022-10-02T00:50:47.168Z,11.57
2022-10-02T00:52:30.479Z,11.41
2022-10-02T00:54:04.349Z,11.49
2022-10-02T00:55:31.137Z,11.46
2022-10-02T00:56:36.953Z,11.39
2022-10-02T00:57:53.365Z,11.28
2022-10-02T00:59:14.531Z,11.35
2022-10-02T01:00:19.533Z,11.31
2022-10-02T01:01:41.735Z,11.21
2022-10-02T01:02:58.937Z,11.19
2022-10-02T01:04:09.379Z,11.14
2022-10-02T01:05:12.517Z,11.14
2022-10-02T01:06:15.121Z,11.09
2022-10-02T01:07:17.747Z,11.02
2022-10-02T01:08:21.766Z,10.99
2022-10-02T01:09:25.744Z,10.99
2022-10-02T01:10:30.898Z,11.06
2022-10-02T01:11:35.824Z,10.89
2022-10-02T01:12:44.236Z,10.95
2022-10-02T01:13:52.761Z,10.90
2022-10-02T01:14:55.431Z,10.83
2022-10-02T01:16:00.987Z,10.87
2022-10-02T01:17:21.723Z,11.04
2022-10-02T01:18:49.534Z,11.13
2022-10-02T01:19:53.458Z,11.24
2022-10-02T01:21:05.420Z,11.27
2022-10-02T01:22:25.403Z,11.29
2022-10-02T01:23:38.446Z,11.33
2022-10-02T01:24:51.211Z,11.26
2022-10-02T01:25:54.118Z,11.22
2022-10-02T01:26:56.752Z,11.17
2022-10-02T01:27:59.755Z,11.23
2022-10-02T01:29:09.584Z,11.19
2022-10-02T01:30:18.625Z,11.16
2022-10-02T01:31:22.844Z,11.10
2022-10-02T01:32:26.997Z,11.06
2022-10-02T01:33:32.173Z,11.06
2022-10-02T01:34:35.216Z,11.01
2022-10-02T01:35:39.710Z,10.96
2022-10-02T01:36:42.767Z,10.90
2022-10-02T01:37:45.735Z,10.91
2022-10-02T01:38:50.481Z,10.88
2022-10-02T01:39:53.374Z,10.84
2022-10-02T01:40:56.045Z,10.85
2022-10-02T01:42:03.174Z,10.78
2022-10-02T01:43:10.078Z,10.75
2022-10-02T01:44:14.076Z,10.77
2022-10-02T01:45:16.821Z,10.70
2022-10-02T01:46:41.741Z,10.61
2022-10-02T01:47:52.020Z,10.52
2022-10-02T01:49:11.577Z,10.58
2022-10-02T01:50:19.548Z,10.43
2022-10-02T01:51:33.966Z,10.38
2022-10-02T01:53:02.771Z,10.32
2022-10-02T01:54:25.224Z,10.35
2022-10-02T01:55:41.912Z,10.37
2022-10-02T01:56:44.603Z,10.32
2022-10-02T01:58:09.482Z,10.29
2022-10-02T01:59:12.033Z,10.25
2022-10-02T02:00:20.389Z,10.16
2022-10-02T02:01:26.389Z,10.20
2022-10-02T02:02:50.738Z,10.15
2022-10-02T02:04:13.839Z,10.10
2022-10-02T02:05:25.188Z,10.08
2022-10-02T02:06:40.317Z,10.05
2022-10-02T02:08:31.359Z,9.90
2022-10-02T02:09:45.721Z,9.98
2022-10-02T02:10:52.468Z,9.94
2022-10-02T02:12:31.650Z,10.00
2022-10-02T02:14:01.933Z,9.84
2022-10-02T02:15:19.124Z,9.84
2022-10-02T02:16:32.054Z,9.91
2022-10-02T02:17:51.317Z,9.82
2022-10-02T02:19:14.836Z,9.83
2022-10-02T02:20:33.337Z,9.75
2022-10-02T02:21:44.489Z,9.84
2022-10-02T02:22:52.697Z,9.84
2022-10-02T02:23:59.053Z,9.78
2022-10-02T02:25:10.377Z,9.63
2022-10-02T02:26:17.168Z,9.59
2022-10-02T02:27:25.688Z,9.61
2022-10-02T02:28:31.566Z,9.66
2022-10-02T02:29:37.103Z,9.62
2022-10-02T02:30:44.378Z,9.59
2022-10-02T02:31:52.643Z,9.60
2022-10-02T02:33:01.979Z,9.59
2022-10-02T02:34:11.501Z,9.58
2022-10-02T02:35:27.493Z,9.59
2022-10-02T02:36:39.249Z,9.56
2022-10-02T02:37:44.625Z,9.57
2022-10-02T02:38:52.882Z,9.53
2022-10-02T02:40:01.846Z,9.38
2022-10-02T02:41:09.601Z,9.47
2022-10-02T02:42:17.775Z,9.53
2022-10-02T02:43:29.751Z,9.39
2022-10-02T02:44:44.764Z,9.35
2022-10-02T02:46:14.506Z,9.45
2022-10-02T02:47:22.819Z,9.43
2022-10-02T02:48:30.458Z,9.44
2022-10-02T02:49:57.256Z,9.47
2022-10-02T02:51:08.808Z,9.46
2022-10-02T02:52:17.603Z,9.52
2022-10-02T02:53:41.644Z,9.54
2022-10-02T02:54:49.659Z,9.38
2022-10-02T02:55:59.278Z,9.40
2022-10-02T02:57:05.274Z,9.40
2022-10-02T02:58:17.337Z,9.43
2022-10-02T02:59:22.437Z,9.41
2022-10-02T03:00:26.524Z,9.47
2022-10-02T03:01:29.252Z,9.42
2022-10-02T03:02:32.126Z,9.45
2022-10-02T03:03:34.705Z,9.39
2022-10-02T03:04:37.500Z,9.42
2022-10-02T03:05:45.402Z,9.48
2022-10-02T03:06:55.277Z,9.39
2022-10-02T03:08:05.842Z,9.40
2022-10-02T03:09:13.877Z,9.20
2022-10-02T03:10:38.351Z,9.20
2022-10-02T03:12:09.324Z,9.19
2022-10-02T03:13:30.820Z,9.25
2022-10-02T03:14:43.220Z,9.29
2022-10-02T03:16:03.945Z,9.14
2022-10-02T03:17:39.748Z,9.24
2022-10-02T03:18:42.405Z,9.20
2022-10-02T03:19:50.637Z,9.19
2022-10-02T03:21:05.328Z,9.14
2022-10-02T03:22:41.470Z,9.12
2022-10-02T03:23:53.228Z,9.14
2022-10-02T03:25:14.034Z,9.19
2022-10-02T03:26:35.252Z,9.23
2022-10-02T03:27:45.753Z,9.06
2022-10-02T03:28:57.598Z,8.99
2022-10-02T03:30:02.384Z,8.97
2022-10-02T03:31:05.504Z,8.89
2022-10-02T03:32:09.551Z,8.88
2022-10-02T03:33:14.480Z,8.91
2022-10-02T03:34:17.682Z,8.96
2022-10-02T03:35:23.074Z,9.03
2022-10-02T03:36:26.449Z,9.00
2022-10-02T03:37:29.968Z,9.06
2022-10-02T03:38:34.177Z,9.09
2022-10-02T03:39:44.461Z,9.06
2022-10-02T03:40:46.891Z,9.05
2022-10-02T03:41:49.545Z,9.08
2022-10-02T03:42:54.110Z,9.01
2022-10-02T03:43:56.656Z,8.96
2022-10-02T03:45:01.467Z,8.97
2022-10-02T03:46:04.102Z,8.88
2022-10-02T03:47:06.697Z,8.94
2022-10-02T03:48:09.810Z,9.00
2022-10-02T03:49:12.407Z,9.00
2022-10-02T03:50:17.827Z,9.03
2022-10-02T03:51:21.324Z,8.96
2022-10-02T03:52:24.579Z,8.93
2022-10-02T03:53:36.506Z,9.01
2022-10-02T03:54:39.013Z,8.99
2022-10-02T03:55:46.897Z,8.88
2022-10-02T03:56:58.079Z,8.78
2022-10-02T03:58:10.806Z,8.79
2022-10-02T03:59:17.866Z,8.88
2022-10-02T04:00:27.719Z,8.91
2022-10-02T04:01:37.962Z,8.93
2022-10-02T04:02:48.742Z,8.96
2022-10-02T04:03:57.915Z,8.86
2022-10-02T04:05:23.904Z,8.93
2022-10-02T04:06:46.230Z,8.83
2022-10-02T04:07:52.998Z,8.82
2022-10-02T04:09:11.945Z,8.78
2022-10-02T04:10:20.817Z,8.77
2022-10-02T04:11:32.175Z,8.72
2022-10-02T04:12:42.136Z,8.77
2022-10-02T04:14:02.890Z,8.83
2022-10-02T04:15:15.194Z,8.86
2022-10-02T04:16:40.308Z,8.73
2022-10-02T04:18:10.900Z,8.72
2022-10-02T04:19:25.372Z,8.77
2022-10-02T04:20:42.055Z,8.74
2022-10-02T04:21:47.487Z,8.78
2022-10-02T04:22:57.760Z,8.75
2022-10-02T04:24:10.182Z,8.69
2022-10-02T04:25:29.387Z,8.59
2022-10-02T04:26:37.465Z,8.68
2022-10-02T04:27:45.435Z,8.71
2022-10-02T04:28:54.971Z,8.70
2022-10-02T04:30:01.708Z,8.59
2022-10-02T04:31:11.748Z,8.60
2022-10-02T04:32:15.704Z,8.64
2022-10-02T04:33:20.072Z,8.59
2022-10-02T04:34:25.218Z,8.61
2022-10-02T04:35:46.247Z,8.72
2022-10-02T04:37:06.589Z,8.71
2022-10-02T04:38:21.170Z,8.73
2022-10-02T04:40:07.215Z,8.75
2022-10-02T04:41:21.725Z,8.74
2022-10-02T04:42:41.344Z,8.71
2022-10-02T04:43:52.982Z,8.71
2022-10-02T04:44:55.405Z,8.69
2022-10-02T04:46:06.939Z,8.70
2022-10-02T04:47:33.591Z,8.64
2022-10-02T04:48:54.575Z,8.67
2022-10-02T04:50:30.643Z,8.59
2022-10-02T04:52:01.720Z,8.57
2022-10-02T04:53:30.785Z,8.61
2022-10-02T04:54:54.747Z,8.51
2022-10-02T04:56:12.901Z,8.60
2022-10-02T04:57:39.919Z,8.59
2022-10-02T04:59:04.005Z,8.59
2022-10-02T05:00:25.502Z,8.59
2022-10-02T05:01:41.623Z,8.63
2022-10-02T05:03:05.326Z,8.58
2022-10-02T05:04:26.594Z,8.68
2022-10-02T05:06:05.811Z,8.75
2022-10-02T05:07:55.409Z,8.86
2022-10-02T05:09:29.346Z,8.87
2022-10-02T05:11:09.294Z,8.89
2022-10-02T05:12:38.004Z,8.78
2022-10-02T05:14:02.240Z,8.91
2022-10-02T05:15:16.508Z,8.95
2022-10-02T05:16:37.972Z,8.97
2022-10-02T05:18:08.703Z,8.99
2022-10-02T05:19:57.714Z,9.42
2022-10-02T05:21:26.518Z,12.10
2022-10-02T05:22:46.456Z,14.38
2022-10-02T05:24:20.002Z,15.67
2022-10-02T05:25:38.364Z,17.21
2022-10-02T05:26:47.142Z,17.60
2022-10-02T05:28:04.713Z,18.71
2022-10-02T05:29:21.413Z,18.30
2022-10-02T05:30:24.984Z,18.47
2022-10-02T05:31:55.865Z,18.74
2022-10-02T05:33:32.937Z,19.20
2022-10-02T05:34:47.596Z,19.60
2022-10-02T05:36:02.273Z,19.55
2022-10-02T05:37:35.986Z,19.60
2022-10-02T05:39:07.456Z,18.96
2022-10-02T05:40:15.640Z,19.60
2022-10-02T05:41:35.997Z,19.62
2022-10-02T05:42:48.796Z,19.98
2022-10-02T05:44:06.340Z,20.17
2022-10-02T05:45:35.025Z,19.98
2022-10-02T05:46:44.992Z,19.98
2022-10-02T05:47:49.909Z,20.12
2022-10-02T05:49:17.974Z,21.00
2022-10-02T05:50:29.967Z,20.44
2022-10-02T05:51:38.108Z,20.72
2022-10-02T05:52:46.719Z,20.29
2022-10-02T05:54:05.019Z,20.75
2022-10-02T05:55:26.134Z,20.93
2022-10-02T05:56:43.427Z,21.11
2022-10-02T05:58:26.462Z,20.91
2022-10-02T05:59:47.157Z,20.92
2022-10-02T06:01:03.508Z,20.93
2022-10-02T06:02:12.637Z,20.78
2022-10-02T06:03:39.666Z,20.25
2022-10-02T06:04:49.553Z,19.50
2022-10-02T06:05:59.002Z,18.23
2022-10-02T06:07:18.222Z,17.06
2022-10-02T06:08:31.785Z,15.47
2022-10-02T06:09:40.298Z,15.03
2022-10-02T06:10:48.618Z,14.69
2022-10-02T06:12:00.118Z,14.38
2022-10-02T06:13:10.835Z,14.44
2022-10-02T06:14:31.115Z,14.27
2022-10-02T06:15:38.305Z,14.51
2022-10-02T06:16:48.298Z,14.43
2022-10-02T06:17:56.932Z,14.48
2022-10-02T06:19:08.252Z,14.70
2022-10-02T06:20:37.949Z,15.40
2022-10-02T06:21:50.027Z,16.82
2022-10-02T06:23:06.363Z,18.41
2022-10-02T06:24:17.273Z,20.57
2022-10-02T06:25:49.683Z,21.17
2022-10-02T06:27:38.455Z,22.33
2022-10-02T06:28:48.118Z,21.42
2022-10-02T06:30:04.336Z,21.99
2022-10-02T06:31:06.745Z,22.07
2022-10-02T06:32:33.955Z,21.95
2022-10-02T06:33:36.570Z,21.72
2022-10-02T06:34:38.962Z,21.60
2022-10-02T06:35:53.654Z,22.12
2022-10-02T06:37:12.026Z,22.23
2022-10-02T06:38:32.839Z,22.59
2022-10-02T06:40:17.174Z,22.51
2022-10-02T06:41:56.939Z,22.11
2022-10-02T06:43:27.830Z,20.63
2022-10-02T06:44:37.885Z,21.58
2022-10-02T06:46:20.169Z,21.17
2022-10-02T06:48:18.119Z,21.74
2022-10-02T06:50:21.547Z,22.12
2022-10-02T06:51:32.920Z,21.14
2022-10-02T06:53:21.547Z,21.52
2022-10-02T06:54:50.000Z,21.55
2022-10-02T06:55:52.616Z,21.82
2022-10-02T06:57:29.061Z,21.76
2022-10-02T06:58:43.709Z,21.85
2022-10-02T07:00:20.266Z,21.59
2022-10-02T07:03:06.998Z,21.73
2022-10-02T07:04:46.271Z,21.03
2022-10-02T07:06:08.187Z,21.46
2022-10-02T07:07:46.223Z,21.00
2022-10-02T07:09:40.627Z,21.18
2022-10-02T07:11:24.375Z,19.76
2022-10-02T07:12:33.375Z,20.15
2022-10-02T07:13:44.747Z,20.05
2022-10-02T07:15:03.374Z,20.17
2022-10-02T07:16:31.062Z,19.98
2022-10-02T07:18:02.211Z,20.02
2022-10-02T07:21:44.908Z,20.80
2022-10-02T07:23:22.960Z,20.56
2022-10-02T07:29:17.656Z,21.69
2022-10-02T07:30:22.668Z,22.02
2022-10-02T07:31:52.283Z,22.15
2022-10-02T07:33:16.352Z,21.35
2022-10-02T07:34:34.578Z,21.92
2022-10-02T07:35:53.506Z,21.67
2022-10-02T07:37:04.351Z,21.11
2022-10-02T07:38:43.505Z,20.61
2022-10-02T07:40:04.696Z,20.91
2022-10-02T07:41:54.175Z,20.99
2022-10-02T07:43:54.516Z,20.81
2022-10-02T07:45:07.193Z,20.81
2022-10-02T07:46:35.424Z,20.04
2022-10-02T07:48:13.059Z,20.00
2022-10-02T07:49:45.464Z,20.07
2022-10-02T07:51:40.459Z,19.88
2022-10-02T07:53:10.092Z,19.36
2022-10-02T07:54:22.275Z,19.38
2022-10-02T07:55:27.612Z,19.42
2022-10-02T07:56:30.982Z,19.75
2022-10-02T07:57:52.626Z,19.97
2022-10-02T07:59:04.528Z,20.30
2022-10-02T08:00:16.254Z,20.02
2022-10-02T08:01:34.654Z,19.21
2022-10-02T08:03:19.484Z,19.11
2022-10-02T08:04:41.318Z,19.35
2022-10-02T08:05:49.906Z,18.96
2022-10-02T08:07:00.977Z,19.57
2022-10-02T08:08:50.809Z,19.85
2022-10-02T08:09:54.979Z,19.45
2022-10-02T08:11:12.603Z,19.64
2022-10-02T08:12:39.113Z,19.71
2022-10-02T08:13:55.714Z,19.41
2022-10-02T08:15:03.337Z,19.56
2022-10-02T08:16:08.936Z,19.71
2022-10-02T08:17:44.634Z,19.77
2022-10-02T08:18:59.872Z,19.23
2022-10-02T08:20:46.208Z,19.27
2022-10-02T08:22:40.748Z,19.54
2022-10-02T08:24:18.058Z,19.78
2022-10-02T08:25:21.512Z,19.32
2022-10-02T08:27:06.088Z,19.50
2022-10-02T08:28:44.354Z,19.49
2022-10-02T08:30:02.548Z,19.79
2022-10-02T08:31:16.363Z,19.69
2022-10-02T08:32:19.395Z,19.62
2022-10-02T08:33:23.380Z,19.47
2022-10-02T08:34:30.069Z,19.57
2022-10-02T08:35:48.516Z,19.07
2022-10-02T08:37:19.295Z,20.11
2022-10-02T08:38:41.393Z,19.40
2022-10-02T08:40:11.483Z,19.83
2022-10-02T08:41:47.015Z,20.24
2022-10-02T08:43:29.075Z,20.24
2022-10-02T08:44:49.805Z,20.70
2022-10-02T08:46:04.378Z,20.66
2022-10-02T08:47:33.421Z,20.93
2022-10-02T08:49:03.027Z,21.35
2022-10-02T08:50:50.809Z,20.86
2022-10-02T08:52:14.951Z,20.00
2022-10-02T08:53:52.610Z,20.50
2022-10-02T08:55:13.004Z,19.96
2022-10-02T08:56:43.642Z,19.46
2022-10-02T08:59:35.455Z,18.68
2022-10-02T09:01:09.104Z,18.68
2022-10-02T09:04:05.529Z,17.76
2022-10-02T09:06:03.815Z,17.68
2022-10-02T09:07:38.556Z,17.52
2022-10-02T09:09:07.527Z,17.41
2022-10-02T09:11:13.241Z,17.42
2022-10-02T09:12:46.378Z,17.22
2022-10-02T09:14:16.502Z,17.16
2022-10-02T09:15:38.999Z,17.15
2022-10-02T09:17:02.788Z,16.95
2022-10-02T09:18:29.576Z,16.95
2022-10-02T09:20:03.267Z,16.82
2022-10-02T09:21:27.449Z,16.68
2022-10-02T09:22:55.690Z,16.85
2022-10-02T09:24:46.850Z,16.87
2022-10-02T09:26:03.340Z,16.93
2022-10-02T09:27:24.697Z,17.17
2022-10-02T09:28:42.173Z,18.18
2022-10-02T09:30:12.397Z,19.15
2022-10-02T09:31:32.885Z,19.01
2022-10-02T09:33:15.176Z,18.78
2022-10-02T09:35:09.364Z,18.33
2022-10-02T09:36:19.170Z,17.87
2022-10-02T09:37:46.204Z,17.72
2022-10-02T09:39:13.034Z,17.57
2022-10-02T09:40:31.646Z,17.29
2022-10-02T09:41:44.508Z,17.40
2022-10-02T09:43:44.124Z,17.08
2022-10-02T09:45:19.282Z,16.87
2022-10-02T09:46:40.296Z,16.51
2022-10-02T09:48:08.870Z,16.60
2022-10-02T09:49:43.899Z,16.85
2022-10-02T09:51:14.167Z,17.52
2022-10-02T09:52:19.409Z,17.42
2022-10-02T09:53:56.210Z,17.35
2022-10-02T09:55:13.444Z,17.03
2022-10-02T09:56:40.225Z,16.95
2022-10-02T09:58:05.727Z,17.35
2022-10-02T09:59:40.828Z,18.55
2022-10-02T10:00:54.298Z,19.61
2022-10-02T10:02:30.328Z,19.21
2022-10-02T10:04:08.747Z,18.56
2022-10-02T10:05:34.303Z,19.25
2022-10-02T10:06:55.970Z,19.88
2022-10-02T10:08:28.670Z,20.24
2022-10-02T10:09:51.497Z,20.78
2022-10-02T10:11:02.789Z,21.05
2022-10-02T10:12:13.659Z,21.82
2022-10-02T10:13:47.265Z,21.61
2022-10-02T10:15:13.908Z,21.08
2022-10-02T10:17:10.687Z,20.10
2022-10-02T10:18:23.982Z,20.37
2022-10-02T10:19:53.769Z,20.09
2022-10-02T10:21:30.075Z,19.35
2022-10-02T10:22:49.628Z,18.96
2022-10-02T10:24:07.075Z,18.66
2022-10-02T10:25:38.751Z,18.62
2022-10-02T10:27:09.017Z,18.32
2022-10-02T10:28:20.300Z,18.41
2022-10-02T10:29:25.449Z,18.36
2022-10-02T10:30:36.503Z,18.34
2022-10-02T10:32:03.569Z,18.15
2022-10-02T10:33:45.483Z,17.77
2022-10-02T10:35:20.950Z,18.17
2022-10-02T10:37:09.873Z,19.31
2022-10-02T10:38:58.396Z,20.36
2022-10-02T10:40:19.543Z,21.01
2022-10-02T10:41:37.369Z,21.42
2022-10-02T10:43:16.943Z,22.21
2022-10-02T10:44:48.145Z,21.97
2022-10-02T10:46:19.295Z,22.09
2022-10-02T10:47:43.968Z,22.60
2022-10-02T10:49:09.866Z,22.78
2022-10-02T10:50:36.020Z,22.86
2022-10-02T10:51:51.500Z,22.62
2022-10-02T10:52:55.168Z,22.87
2022-10-02T10:54:22.876Z,22.94
2022-10-02T10:56:22.127Z,22.82
2022-10-02T10:57:42.541Z,22.71
2022-10-02T10:58:56.816Z,23.13
2022-10-02T11:00:39.096Z,22.39
2022-10-02T11:02:03.477Z,22.90
2022-10-02T11:03:36.767Z,22.94
2022-10-02T11:05:16.044Z,22.84
2022-10-02T11:06:46.097Z,23.09
2022-10-02T11:07:52.341Z,23.68
2022-10-02T11:09:17.644Z,23.33
2022-10-02T11:10:29.552Z,23.28
2022-10-02T11:11:41.014Z,23.52
2022-10-02T11:13:25.526Z,23.57
2022-10-02T11:14:49.661Z,24.12
2022-10-02T11:16:16.785Z,24.17
2022-10-02T11:17:25.044Z,24.33
2022-10-02T11:18:34.919Z,24.27
2022-10-02T11:20:02.640Z,24.37
2022-10-02T11:21:11.351Z,24.54
2022-10-02T11:22:19.669Z,23.75
2022-10-02T11:24:23.644Z,23.18
2022-10-02T11:25:38.888Z,23.05
2022-10-02T11:27:00.531Z,23.17
2022-10-02T11:28:22.611Z,22.43
2022-10-02T11:29:47.609Z,21.65
2022-10-02T11:31:00.734Z,20.65
2022-10-02T11:32:28.234Z,20.30
2022-10-02T11:33:30.574Z,19.84
2022-10-02T11:34:54.968Z,19.46
2022-10-02T11:36:05.638Z,19.41
2022-10-02T11:37:18.104Z,19.30
2022-10-02T11:38:33.237Z,19.29
2022-10-02T11:40:05.602Z,18.69
2022-10-02T11:41:34.566Z,18.85
2022-10-02T11:42:56.887Z,18.97
2022-10-02T11:44:13.727Z,18.90
2022-10-02T11:45:50.849Z,20.05
2022-10-02T11:47:19.872Z,21.38
2022-10-02T11:48:48.039Z,21.72
2022-10-02T11:50:35.807Z,22.33
2022-10-02T11:51:51.623Z,22.52
2022-10-02T11:53:53.137Z,22.52
2022-10-02T11:55:03.645Z,22.85
2022-10-02T11:56:35.865Z,22.83
2022-10-02T11:58:26.000Z,22.79
2022-10-02T12:00:06.889Z,21.59
2022-10-02T12:01:23.804Z,21.32
2022-10-02T12:02:47.359Z,20.93
2022-10-02T12:04:11.226Z,21.62
2022-10-02T12:05:29.806Z,22.14
2022-10-02T12:06:56.572Z,22.50
2022-10-02T12:08:38.242Z,22.40
2022-10-02T12:10:21.983Z,22.98
2022-10-02T12:11:42.301Z,23.36
2022-10-02T12:12:53.640Z,23.33
2022-10-02T12:14:18.101Z,23.75
2022-10-02T12:15:34.401Z,23.83
2022-10-02T12:16:45.940Z,23.84
2022-10-02T12:18:22.043Z,24.04
2022-10-02T12:19:32.444Z,24.40
2022-10-02T12:21:18.444Z,24.11
2022-10-02T12:22:55.148Z,23.82
2022-10-02T12:24:44.540Z,23.50
2022-10-02T12:26:11.036Z,23.66
2022-10-02T12:27:43.028Z,23.61
2022-10-02T12:29:07.326Z,23.33
2022-10-02T12:30:53.800Z,23.10
2022-10-02T12:32:08.579Z,23.12
2022-10-02T12:33:35.089Z,23.70
2022-10-02T12:34:40.294Z,23.41
2022-10-02T12:36:11.859Z,23.45
2022-10-02T12:37:17.733Z,23.38
2022-10-02T12:38:50.045Z,23.34
2022-10-02T12:40:09.445Z,23.17
2022-10-02T12:41:49.551Z,23.27
2022-10-02T12:43:20.159Z,23.15
2022-10-02T12:44:32.906Z,23.14
2022-10-02T12:45:57.786Z,23.33
2022-10-02T12:47:29.421Z,22.94
2022-10-02T12:48:54.204Z,23.02
2022-10-02T12:50:12.004Z,23.03
2022-10-02T12:51:49.667Z,22.85
2022-10-02T12:53:04.630Z,22.26
2022-10-02T12:54:10.080Z,21.84
2022-10-02T12:55:18.203Z,22.05
2022-10-02T12:56:42.689Z,22.51
2022-10-02T12:57:59.016Z,22.35
2022-10-02T12:59:01.814Z,21.95
2022-10-02T13:00:15.234Z,22.21
2022-10-02T13:01:55.344Z,22.30
2022-10-02T13:03:16.520Z,22.28
2022-10-02T13:04:40.469Z,22.38
2022-10-02T13:06:02.079Z,22.44
2022-10-02T13:07:33.990Z,22.20
2022-10-02T13:08:48.818Z,21.99
2022-10-02T13:10:15.937Z,22.25
2022-10-02T13:11:37.946Z,21.84
2022-10-02T13:12:52.388Z,21.68
2022-10-02T13:14:33.338Z,21.38
2022-10-02T13:15:49.457Z,21.37
2022-10-02T13:16:58.913Z,21.28
2022-10-02T13:18:34.034Z,21.17
2022-10-02T13:19:50.942Z,21.52
2022-10-02T13:21:24.056Z,21.35
2022-10-02T13:23:21.876Z,21.53
2022-10-02T13:24:36.105Z,21.17
2022-10-02T13:25:44.503Z,21.18
2022-10-02T13:27:00.176Z,21.47
2022-10-02T13:28:23.960Z,21.36
2022-10-02T13:29:40.789Z,21.41
2022-10-02T13:31:14.800Z,21.78
2022-10-02T13:32:17.137Z,21.73
2022-10-02T13:33:56.835Z,21.47
2022-10-02T13:35:28.110Z,21.28
2022-10-02T13:36:50.676Z,21.03
2022-10-02T13:38:06.980Z,21.11
2022-10-02T13:39:35.686Z,20.92
2022-10-02T13:40:48.546Z,20.95
2022-10-02T13:42:05.799Z,21.22
2022-10-02T13:43:46.898Z,20.48
2022-10-02T13:45:08.615Z,20.19
2022-10-02T13:46:26.224Z,20.01
2022-10-02T13:47:37.754Z,19.71
2022-10-02T13:48:58.358Z,19.84
2022-10-02T13:50:31.767Z,19.89
2022-10-02T13:52:13.625Z,20.23
2022-10-02T13:53:30.849Z,20.48
2022-10-02T13:54:48.475Z,20.71
2022-10-02T13:56:04.287Z,20.41
2022-10-02T13:57:51.410Z,20.52
2022-10-02T13:59:05.524Z,20.20
2022-10-02T14:00:44.485Z,20.12
2022-10-02T14:01:55.311Z,20.01
2022-10-02T14:03:18.903Z,19.98
2022-10-02T14:05:02.520Z,19.98
2022-10-02T14:06:20.727Z,19.99
2022-10-02T14:07:49.217Z,19.82
2022-10-02T14:09:11.992Z,19.92
2022-10-02T14:10:48.901Z,20.03
2022-10-02T14:12:00.313Z,19.83
2022-10-02T14:13:33.347Z,19.84
2022-10-02T14:15:03.604Z,19.51
2022-10-02T14:16:36.626Z,19.50
2022-10-02T14:18:01.175Z,19.48
2022-10-02T14:19:23.701Z,19.68
2022-10-02T14:20:52.437Z,19.74
2022-10-02T14:22:03.613Z,19.66
2022-10-02T14:23:08.688Z,19.72
2022-10-02T14:25:00.196Z,19.42
2022-10-02T14:26:25.174Z,19.45
2022-10-02T14:27:49.438Z,19.40
2022-10-02T14:29:27.186Z,19.22
2022-10-02T14:30:49.675Z,18.95
2022-10-02T14:32:16.837Z,19.00
2022-10-02T14:33:33.099Z,18.86
2022-10-02T14:34:38.387Z,18.82
2022-10-02T14:35:47.903Z,18.65
2022-10-02T14:37:11.526Z,18.67
2022-10-02T14:38:23.078Z,18.69
2022-10-02T14:39:37.733Z,18.69
2022-10-02T14:40:56.286Z,18.63
2022-10-02T14:42:21.776Z,18.71
2022-10-02T14:43:50.323Z,18.76
2022-10-02T14:45:12.983Z,18.60
2022-10-02T14:46:22.151Z,18.61
2022-10-02T14:47:30.508Z,18.52
2022-10-02T14:49:09.578Z,18.51
2022-10-02T14:50:40.093Z,18.35
2022-10-02T14:52:06.099Z,18.35
2022-10-02T14:53:33.853Z,18.24
2022-10-02T14:55:10.053Z,18.24
2022-10-02T14:56:25.086Z,18.38
2022-10-02T14:57:55.122Z,18.31
2022-10-02T14:59:21.685Z,18.28
2022-10-02T15:00:25.837Z,18.24
2022-10-02T15:01:30.909Z,18.31
2022-10-02T15:03:11.665Z,18.32
2022-10-02T15:04:29.467Z,18.25
2022-10-02T15:05:40.837Z,18.23
2022-10-02T15:07:07.249Z,18.32
2022-10-02T15:08:25.140Z,18.34
2022-10-02T15:09:48.258Z,18.32
2022-10-02T15:10:52.106Z,18.24
2022-10-02T15:12:06.529Z,18.24
2022-10-02T15:13:28.660Z,18.23
2022-10-02T15:14:39.587Z,18.17
2022-10-02T15:16:22.097Z,18.10
2022-10-02T15:17:56.965Z,18.10
2022-10-02T15:19:15.560Z,18.05
2022-10-02T15:21:00.891Z,18.04
2022-10-02T15:22:32.323Z,17.99
2022-10-02T15:23:42.873Z,17.96
2022-10-02T15:25:06.782Z,17.92
2022-10-02T15:26:30.905Z,17.89
2022-10-02T15:27:46.388Z,17.85
2022-10-02T15:29:06.643Z,17.84
2022-10-02T15:30:26.993Z,17.68
2022-10-02T15:31:50.593Z,17.64
2022-10-02T15:33:23.690Z,17.63
2022-10-02T15:34:37.245Z,17.56
2022-10-02T15:35:58.927Z,17.50
2022-10-02T15:37:06.624Z,17.54
2022-10-02T15:38:20.455Z,17.39
2022-10-02T15:39:37.122Z,17.35
2022-10-02T15:41:01.065Z,17.33
2022-10-02T15:42:09.470Z,17.30
2022-10-02T15:43:26.204Z,17.24
2022-10-02T15:45:06.240Z,17.13
2022-10-02T15:46:15.583Z,17.08
2022-10-02T15:47:42.483Z,17.01
2022-10-02T15:48:53.779Z,16.93
2022-10-02T15:50:08.637Z,16.97
2022-10-02T15:51:28.918Z,16.89
2022-10-02T15:52:54.506Z,16.85
2022-10-02T15:54:08.890Z,16.80
2022-10-02T15:55:38.177Z,16.79
2022-10-02T15:56:53.061Z,16.73
2022-10-02T15:58:26.463Z,16.62
2022-10-02T15:59:57.623Z,16.60
2022-10-02T16:01:09.018Z,16.52
2022-10-02T16:02:35.088Z,16.44
2022-10-02T16:03:54.441Z,16.40
2022-10-02T16:05:24.189Z,16.39
2022-10-02T16:07:14.378Z,16.39
2022-10-02T16:08:27.174Z,16.38
2022-10-02T16:09:59.406Z,16.34
2022-10-02T16:11:24.788Z,16.33
2022-10-02T16:12:39.210Z,16.24
2022-10-02T16:14:02.246Z,16.16
2022-10-02T16:15:16.667Z,16.11
2022-10-02T16:16:34.883Z,15.94
2022-10-02T16:18:04.201Z,15.88
2022-10-02T16:19:21.568Z,15.88
2022-10-02T16:20:42.819Z,15.81
2022-10-02T16:22:07.491Z,15.86
2022-10-02T16:23:35.565Z,15.85
2022-10-02T16:24:58.982Z,15.73
2022-10-02T16:26:20.561Z,15.79
2022-10-02T16:27:46.756Z,15.83
2022-10-02T16:29:11.182Z,15.75
2022-10-02T16:30:19.863Z,15.75
2022-10-02T16:31:52.522Z,15.71
2022-10-02T16:32:58.583Z,15.69
2022-10-02T16:34:39.446Z,15.67
2022-10-02T16:36:03.862Z,15.63
2022-10-02T16:37:24.521Z,15.58
2022-10-02T16:38:49.822Z,15.48
2022-10-02T16:40:19.004Z,15.44
2022-10-02T16:41:40.939Z,15.39
2022-10-02T16:42:53.455Z,15.49
2022-10-02T16:44:34.748Z,15.44
2022-10-02T16:45:43.230Z,15.40
2022-10-02T16:46:54.312Z,15.35
2022-10-02T16:48:09.682Z,15.36
2022-10-02T16:49:33.258Z,15.31
2022-10-02T16:51:07.193Z,15.21
2022-10-02T16:52:45.094Z,15.17
2022-10-02T16:54:15.887Z,15.13
2022-10-02T16:55:33.532Z,15.04
2022-10-02T16:57:05.034Z,14.96
2022-10-02T16:58:21.836Z,14.94
2022-10-02T16:59:28.202Z,14.89
2022-10-02T17:01:24.142Z,14.94
2022-10-02T17:02:43.742Z,14.84
2022-10-02T17:04:12.307Z,14.80
2022-10-02T17:05:35.047Z,14.77
2022-10-02T17:06:42.373Z,14.81
2022-10-02T17:08:09.583Z,14.69
2022-10-02T17:09:19.204Z,14.69
2022-10-02T17:10:53.384Z,14.66
2022-10-02T17:12:20.141Z,14.65
2022-10-02T17:13:33.429Z,14.63
2022-10-02T17:14:53.132Z,14.57
2022-10-02T17:16:27.574Z,14.48
2022-10-02T17:17:47.830Z,14.47
2022-10-02T17:18:58.239Z,14.48
2022-10-02T17:20:04.290Z,14.38
2022-10-02T17:21:16.030Z,14.50
2022-10-02T17:22:46.633Z,14.44
2022-10-02T17:23:49.043Z,14.54
2022-10-02T17:25:02.502Z,14.51
2022-10-02T17:26:12.264Z,14.46
2022-10-02T17:27:33.209Z,14.46
2022-10-02T17:28:54.842Z,14.48
2022-10-02T17:30:09.501Z,14.57
2022-10-02T17:32:06.284Z,14.49
2022-10-02T17:33:19.910Z,14.52
2022-10-02T17:34:51.535Z,14.52
2022-10-02T17:36:01.405Z,14.52